createdAt,value
2022-12-31T00:00:34.488Z,16.76
2022-12-31T00:03:02.506Z,16.73
2022-12-31T00:05:33.185Z,16.82
2022-12-31T00:08:02.092Z,16.72
2022-12-31T00:10:30.293Z,16.62
2022-12-31T00:12:58.381Z,16.83
2022-12-31T00:15:26.743Z,16.85
2022-12-31T00:17:54.623Z,16.85
2022-12-31T00:20:22.551Z,16.79
2022-12-31T00:22:51.866Z,16.80
2022-12-31T00:25:20.118Z,16.79
2022-12-31T00:27:47.925Z,16.77
2022-12-31T00:30:16.309Z,16.82
2022-12-31T00:32:44.290Z,16.81
2022-12-31T00:35:12.116Z,16.74
2022-12-31T00:37:40.738Z,16.79
2022-12-31T00:40:11.972Z,16.79
2022-12-31T00:42:39.806Z,16.89
2022-12-31T00:45:09.351Z,16.67
2022-12-31T00:47:37.151Z,16.92
2022-12-31T00:50:05.475Z,16.79
2022-12-31T00:52:33.654Z,16.86
2022-12-31T00:55:01.555Z,16.93
2022-12-31T00:57:30.950Z,16.89
2022-12-31T00:59:59.326Z,17.03
2022-12-31T01:02:27.140Z,17.10
2022-12-31T01:04:55.121Z,17.04
2022-12-31T01:07:22.883Z,17.16
2022-12-31T01:09:50.729Z,17.18
2022-12-31T01:12:18.509Z,17.23
2022-12-31T01:14:47.947Z,17.25
2022-12-31T01:17:17.214Z,17.18
2022-12-31T01:19:44.969Z,16.93
2022-12-31T01:22:12.722Z,17.31
2022-12-31T01:24:40.419Z,17.33
2022-12-31T01:27:08.405Z,17.29
2022-12-31T01:29:37.523Z,17.42
2022-12-31T01:32:07.161Z,17.36
2022-12-31T01:34:34.991Z,17.25
2022-12-31T01:37:03.027Z,17.28
2022-12-31T01:39:30.777Z,17.40
2022-12-31T01:41:59.573Z,17.42
2022-12-31T01:44:50.341Z,17.38
2022-12-31T01:47:25.915Z,17.19
2022-12-31T01:50:00.281Z,17.59
2022-12-31T01:52:32.023Z,17.45
2022-12-31T01:55:05.268Z,17.64
2022-12-31T01:57:33.731Z,17.53
2022-12-31T02:00:02.959Z,17.65
2022-12-31T02:02:32.804Z,17.64
2022-12-31T02:05:04.409Z,17.46
2022-12-31T02:07:32.795Z,17.63
2022-12-31T02:10:01.229Z,17.28
2022-12-31T02:12:29.077Z,17.60
2022-12-31T02:14:57.845Z,17.40
2022-12-31T02:17:35.117Z,17.61
2022-12-31T02:20:37.979Z,17.60
2022-12-31T02:23:26.519Z,17.54
2022-12-31T02:26:15.767Z,17.59
2022-12-31T02:29:13.328Z,17.57
2022-12-31T02:31:47.437Z,17.47
2022-12-31T02:34:27.224Z,17.37
2022-12-31T02:36:58.530Z,17.48
2022-12-31T02:39:27.007Z,17.43
2022-12-31T02:41:54.806Z,17.15
2022-12-31T02:44:25.559Z,17.17
2022-12-31T02:47:07.205Z,17.49
2022-12-31T02:49:42.029Z,17.53
2022-12-31T02:52:19.467Z,17.45
2022-12-31T02:54:58.515Z,17.53
2022-12-31T02:57:31.870Z,17.40
2022-12-31T03:00:22.216Z,17.53
2022-12-31T03:02:53.860Z,17.58
2022-12-31T03:05:25.307Z,17.55
2022-12-31T03:07:53.112Z,17.55
2022-12-31T03:10:21.214Z,17.46
2022-12-31T03:12:48.809Z,17.39
2022-12-31T03:15:23.111Z,17.37
2022-12-31T03:18:05.594Z,17.51
2022-12-31T03:20:52.808Z,17.46
2022-12-31T03:23:24.158Z,17.55
2022-12-31T03:25:51.394Z,17.55
2022-12-31T03:28:21.475Z,17.39
2022-12-31T03:30:52.923Z,17.55
2022-12-31T03:33:23.599Z,17.64
2022-12-31T03:35:52.339Z,17.48
2022-12-31T03:38:21.324Z,17.43
2022-12-31T03:40:51.098Z,17.69
2022-12-31T03:43:19.329Z,17.68
2022-12-31T03:45:50.704Z,17.59
2022-12-31T03:48:19.140Z,17.63
2022-12-31T03:50:48.980Z,17.32
2022-12-31T03:53:17.911Z,17.74
2022-12-31T03:55:45.763Z,17.58
2022-12-31T03:58:13.975Z,17.77
2022-12-31T04:00:42.419Z,17.82
2022-12-31T04:03:10.543Z,17.60
2022-12-31T04:05:38.294Z,17.85
2022-12-31T04:08:08.164Z,17.56
2022-12-31T04:10:36.030Z,17.53
2022-12-31T04:13:04.668Z,17.56
2022-12-31T04:15:33.555Z,18.09
2022-12-31T04:18:01.396Z,17.90
2022-12-31T04:20:29.227Z,18.07
2022-12-31T04:22:57.578Z,18.11
2022-12-31T04:25:26.932Z,18.01
2022-12-31T04:27:55.031Z,18.04
2022-12-31T04:30:23.436Z,18.15
2022-12-31T04:32:51.347Z,18.01
2022-12-31T04:35:19.406Z,18.07
2022-12-31T04:37:48.168Z,18.18
2022-12-31T04:40:16.042Z,17.98
2022-12-31T04:42:45.349Z,17.96
2022-12-31T04:45:13.855Z,18.11
2022-12-31T04:47:41.691Z,18.03
2022-12-31T04:50:11.909Z,17.96
2022-12-31T04:52:42.915Z,17.98
2022-12-31T04:55:12.179Z,18.16
2022-12-31T04:57:40.554Z,18.10
2022-12-31T05:00:11.631Z,18.14
2022-12-31T05:02:39.749Z,18.15
2022-12-31T05:05:08.364Z,18.15
2022-12-31T05:07:36.171Z,18.20
2022-12-31T05:10:04.302Z,17.97
2022-12-31T05:12:32.488Z,18.04
2022-12-31T05:15:00.404Z,18.11
2022-12-31T05:17:29.622Z,18.08
2022-12-31T05:20:00.457Z,18.23
2022-12-31T05:22:31.217Z,18.13
2022-12-31T05:24:59.847Z,18.14
2022-12-31T05:27:31.627Z,18.29
2022-12-31T05:29:59.656Z,18.10
2022-12-31T05:32:29.097Z,18.24
2022-12-31T05:34:58.196Z,18.34
2022-12-31T05:37:26.398Z,18.27
2022-12-31T05:39:54.327Z,18.42
2022-12-31T05:42:22.852Z,18.37
2022-12-31T05:44:50.983Z,18.53
2022-12-31T05:47:19.145Z,18.51
2022-12-31T05:49:49.107Z,18.46
2022-12-31T05:52:17.099Z,18.42
2022-12-31T05:54:45.087Z,18.55
2022-12-31T05:57:13.621Z,18.56
2022-12-31T05:59:41.373Z,18.58
2022-12-31T06:02:09.431Z,18.61
2022-12-31T06:04:37.812Z,18.43
2022-12-31T06:07:07.086Z,18.59
2022-12-31T06:09:34.840Z,18.24
2022-12-31T06:12:03.256Z,18.36
2022-12-31T06:14:31.085Z,18.60
2022-12-31T06:16:59.241Z,18.43
2022-12-31T06:19:27.921Z,18.42
2022-12-31T06:21:55.683Z,18.49
2022-12-31T06:24:25.029Z,18.51
2022-12-31T06:26:53.346Z,18.48
2022-12-31T06:29:21.172Z,18.71
2022-12-31T06:31:49.048Z,18.63
2022-12-31T06:34:17.422Z,18.59
2022-12-31T06:36:45.279Z,18.69
2022-12-31T06:39:13.091Z,18.68
2022-12-31T06:41:42.841Z,18.42
2022-12-31T06:44:10.661Z,18.66
2022-12-31T06:46:38.492Z,18.46
2022-12-31T06:49:06.894Z,18.63
2022-12-31T06:51:34.665Z,18.33
2022-12-31T06:54:02.509Z,18.65
2022-12-31T06:56:34.851Z,18.65
2022-12-31T06:59:05.615Z,18.64
2022-12-31T07:01:50.669Z,18.62
2022-12-31T07:04:39.462Z,18.57
2022-12-31T07:07:16.942Z,18.35
2022-12-31T07:09:52.977Z,18.32
2022-12-31T07:12:35.796Z,18.07
2022-12-31T07:15:07.447Z,18.43
2022-12-31T07:17:45.783Z,18.28
2022-12-31T07:20:15.595Z,18.19
2022-12-31T07:22:45.190Z,18.18
2022-12-31T07:25:16.996Z,17.85
2022-12-31T07:27:58.139Z,17.81
2022-12-31T07:30:35.822Z,17.93
2022-12-31T07:33:16.587Z,18.03
2022-12-31T07:35:55.315Z,18.03
2022-12-31T07:38:31.127Z,17.99
2022-12-31T07:41:09.959Z,18.10
2022-12-31T07:43:47.728Z,17.98
2022-12-31T07:46:26.620Z,18.09
2022-12-31T07:48:54.962Z,18.11
2022-12-31T07:51:23.517Z,18.11
2022-12-31T07:53:51.474Z,18.17
2022-12-31T07:56:19.405Z,18.17
2022-12-31T07:58:58.347Z,18.24
2022-12-31T08:01:37.522Z,18.24
2022-12-31T08:04:16.528Z,18.22
2022-12-31T08:06:51.638Z,18.18
2022-12-31T08:09:33.226Z,18.28
2022-12-31T08:12:02.848Z,18.25
2022-12-31T08:14:31.435Z,18.22
2022-12-31T08:17:01.539Z,18.18
2022-12-31T08:19:32.218Z,18.20
2022-12-31T08:22:18.253Z,18.30
2022-12-31T08:24:59.203Z,18.41
2022-12-31T08:27:37.446Z,18.38
2022-12-31T08:30:09.658Z,18.32
2022-12-31T08:32:44.949Z,18.20
2022-12-31T08:35:22.354Z,18.30
2022-12-31T08:37:56.224Z,18.20
2022-12-31T08:40:29.442Z,18.31
2022-12-31T08:43:18.191Z,18.44
2022-12-31T08:45:49.723Z,18.48
2022-12-31T08:48:27.742Z,18.58
2022-12-31T08:50:55.892Z,18.59
2022-12-31T08:53:24.128Z,18.64
2022-12-31T08:55:59.303Z,18.68
2022-12-31T08:58:41.038Z,18.66
2022-12-31T09:01:11.057Z,18.67
2022-12-31T09:06:44.108Z,18.73
2022-12-31T09:09:20.278Z,18.60
2022-12-31T09:11:59.083Z,18.59
2022-12-31T09:14:42.725Z,18.51
2022-12-31T09:17:26.340Z,18.69
2022-12-31T09:19:54.682Z,18.66
2022-12-31T09:22:24.911Z,18.68
2022-12-31T09:24:53.743Z,18.63
2022-12-31T09:27:29.249Z,18.70
2022-12-31T09:30:04.045Z,18.70
2022-12-31T09:32:42.927Z,18.72
2022-12-31T09:35:21.059Z,18.61
2022-12-31T09:37:52.447Z,18.68
2022-12-31T09:41:11.247Z,18.67
2022-12-31T09:44:21.535Z,18.79
2022-12-31T09:47:25.004Z,18.82
2022-12-31T09:50:18.868Z,18.72
2022-12-31T09:53:20.547Z,18.81
2022-12-31T09:55:53.776Z,18.84
2022-12-31T09:58:37.980Z,18.88
2022-12-31T10:01:19.113Z,18.86
2022-12-31T10:04:26.944Z,18.86
2022-12-31T10:07:05.509Z,18.87
2022-12-31T10:09:54.506Z,18.94
2022-12-31T10:12:59.071Z,18.96
2022-12-31T10:15:49.891Z,18.94
2022-12-31T10:18:31.147Z,18.92
2022-12-31T10:21:15.019Z,18.93
2022-12-31T10:24:16.797Z,19.00
2022-12-31T10:27:00.896Z,19.00
2022-12-31T10:29:42.011Z,18.99
2022-12-31T10:32:19.023Z,18.97
2022-12-31T10:34:55.769Z,19.04
2022-12-31T10:37:29.512Z,19.08
2022-12-31T10:40:16.863Z,19.01
2022-12-31T10:43:18.287Z,19.06
2022-12-31T10:46:19.133Z,18.95
2022-12-31T10:49:26.458Z,19.07
2022-12-31T10:52:43.354Z,18.99
2022-12-31T10:55:48.145Z,19.04
2022-12-31T10:58:46.857Z,18.95
2022-12-31T11:01:21.735Z,19.00
2022-12-31T11:04:21.017Z,18.94
2022-12-31T11:07:08.116Z,18.96
2022-12-31T11:10:16.970Z,18.92
2022-12-31T11:13:13.799Z,18.95
2022-12-31T11:16:04.415Z,18.94
2022-12-31T11:18:44.991Z,18.70
2022-12-31T11:21:28.752Z,18.85
2022-12-31T11:24:04.500Z,18.88
2022-12-31T11:26:45.297Z,18.89
2022-12-31T11:29:25.519Z,18.85
2022-12-31T11:32:16.640Z,18.93
2022-12-31T11:35:11.251Z,18.90
2022-12-31T11:37:46.291Z,18.91
2022-12-31T11:40:32.368Z,18.70
2022-12-31T11:43:03.043Z,18.87
2022-12-31T11:45:50.842Z,18.86
2022-12-31T11:48:30.596Z,18.88
2022-12-31T11:51:16.219Z,18.94
2022-12-31T11:54:14.508Z,18.94
2022-12-31T11:56:55.299Z,18.94
2022-12-31T11:59:23.220Z,18.89
2022-12-31T12:01:57.088Z,18.98
2022-12-31T12:04:25.108Z,18.91
2022-12-31T12:06:54.631Z,18.80
2022-12-31T12:09:28.307Z,18.65
2022-12-31T12:12:00.620Z,18.88
2022-12-31T12:14:33.362Z,18.90
2022-12-31T12:17:05.208Z,18.98
2022-12-31T12:19:35.728Z,19.05
2022-12-31T12:22:14.527Z,19.03
2022-12-31T12:24:54.524Z,19.10
2022-12-31T12:27:24.653Z,19.16
2022-12-31T12:29:52.508Z,19.11
2022-12-31T12:32:22.529Z,19.06
2022-12-31T12:34:50.466Z,19.14
2022-12-31T12:37:29.441Z,19.06
2022-12-31T12:39:59.019Z,19.05
2022-12-31T12:42:26.759Z,19.02
2022-12-31T12:45:07.311Z,18.90
2022-12-31T12:47:36.059Z,18.99
2022-12-31T12:50:04.616Z,18.88
2022-12-31T12:52:59.563Z,18.85
2022-12-31T12:55:37.995Z,18.88
2022-12-31T12:58:19.461Z,18.94
2022-12-31T13:00:57.823Z,18.93
2022-12-31T13:04:32.600Z,18.91
2022-12-31T13:07:01.113Z,18.88
2022-12-31T13:09:46.717Z,18.81
2022-12-31T13:12:21.819Z,18.89
2022-12-31T13:14:57.267Z,18.79
2022-12-31T13:17:42.473Z,18.89
2022-12-31T13:20:16.520Z,18.72
2022-12-31T13:22:48.215Z,18.91
2022-12-31T13:25:29.611Z,18.85
2022-12-31T13:28:03.716Z,18.91
2022-12-31T13:30:37.404Z,18.96
2022-12-31T13:33:08.609Z,18.68
2022-12-31T13:35:44.879Z,18.90
2022-12-31T13:38:18.622Z,18.96
2022-12-31T13:40:55.222Z,18.85
2022-12-31T13:43:33.746Z,19.01
2022-12-31T13:46:10.975Z,19.02
2022-12-31T13:48:45.937Z,19.05
2022-12-31T13:51:20.129Z,19.04
2022-12-31T13:53:54.572Z,19.06
2022-12-31T13:56:27.294Z,18.95
2022-12-31T13:59:02.036Z,18.83
2022-12-31T14:01:36.217Z,18.75
2022-12-31T14:04:12.895Z,18.99
2022-12-31T14:06:47.782Z,18.99
2022-12-31T14:09:20.790Z,19.07
2022-12-31T14:12:08.601Z,18.99
2022-12-31T14:14:44.799Z,18.88
2022-12-31T14:17:21.408Z,19.02
2022-12-31T14:20:01.547Z,19.14
2022-12-31T14:22:38.003Z,19.06
2022-12-31T14:25:16.688Z,19.01
2022-12-31T14:27:48.432Z,18.90
2022-12-31T14:30:19.402Z,19.01
2022-12-31T14:33:11.911Z,19.00
2022-12-31T14:36:04.003Z,19.00
2022-12-31T14:38:49.110Z,18.99
2022-12-31T14:41:29.891Z,18.96
2022-12-31T14:44:08.447Z,18.99
2022-12-31T14:46:44.073Z,18.83
2022-12-31T14:49:27.761Z,18.73
2022-12-31T14:51:55.565Z,18.89
2022-12-31T14:54:29.053Z,18.99
2022-12-31T14:56:57.092Z,18.81
2022-12-31T14:59:29.282Z,18.98
2022-12-31T15:01:58.854Z,18.85
2022-12-31T15:04:33.497Z,18.91
2022-12-31T15:07:12.191Z,18.83
2022-12-31T15:09:57.816Z,18.83
2022-12-31T15:12:44.385Z,18.85
2022-12-31T15:15:48.255Z,18.87
2022-12-31T15:18:42.470Z,18.89
2022-12-31T15:21:41.992Z,18.53
2022-12-31T15:24:21.191Z,18.73
2022-12-31T15:26:53.229Z,18.84
2022-12-31T15:29:28.126Z,18.90
2022-12-31T15:31:58.913Z,18.84
2022-12-31T15:34:30.996Z,18.85
2022-12-31T15:37:00.994Z,18.89
2022-12-31T15:39:39.791Z,18.86
2022-12-31T15:42:39.999Z,18.81
2022-12-31T15:45:17.331Z,18.66
2022-12-31T15:47:50.224Z,18.66
2022-12-31T15:50:22.813Z,18.86
2022-12-31T15:52:55.423Z,18.83
2022-12-31T15:55:30.129Z,18.82
2022-12-31T15:58:02.951Z,18.68
2022-12-31T16:00:44.872Z,18.58
2022-12-31T16:03:23.495Z,18.68
2022-12-31T16:05:55.141Z,18.86
2022-12-31T16:08:33.116Z,18.72
2022-12-31T16:11:01.547Z,18.83
2022-12-31T16:13:30.971Z,18.80
2022-12-31T16:16:03.631Z,18.54
2022-12-31T16:18:38.497Z,18.56
2022-12-31T16:24:28.785Z,18.74
2022-12-31T16:27:01.403Z,18.60
2022-12-31T16:29:30.782Z,18.57
2022-12-31T16:31:58.803Z,18.70
2022-12-31T16:34:28.391Z,18.65
2022-12-31T16:36:59.527Z,18.67
2022-12-31T16:39:31.554Z,18.67
2022-12-31T16:42:15.960Z,18.66
2022-12-31T16:44:44.559Z,18.49
2022-12-31T16:47:19.158Z,18.61
2022-12-31T16:49:50.313Z,18.56
2022-12-31T16:52:28.391Z,18.50
2022-12-31T16:54:57.906Z,18.55
2022-12-31T16:57:28.247Z,18.53
2022-12-31T17:00:00.552Z,18.56
2022-12-31T17:02:38.496Z,18.42
2022-12-31T17:05:20.020Z,18.47
2022-12-31T17:07:49.281Z,18.21
2022-12-31T17:10:23.173Z,18.41
2022-12-31T17:15:46.288Z,18.58
2022-12-31T17:18:19.931Z,18.48
2022-12-31T17:20:49.098Z,18.42
2022-12-31T17:23:24.617Z,18.53
2022-12-31T17:26:00.279Z,18.59
2022-12-31T17:28:30.112Z,18.49
2022-12-31T17:31:21.591Z,18.53
2022-12-31T17:33:54.972Z,18.37
2022-12-31T17:36:25.125Z,18.38
2022-12-31T17:38:53.149Z,18.59
2022-12-31T17:41:27.352Z,18.56
2022-12-31T17:43:56.891Z,18.58
2022-12-31T17:46:26.762Z,18.56
2022-12-31T17:49:00.495Z,18.50
2022-12-31T17:51:28.661Z,18.56
2022-12-31T17:53:56.709Z,18.53
2022-12-31T17:56:24.405Z,18.58
2022-12-31T17:58:54.958Z,18.57
2022-12-31T18:01:24.693Z,18.57
2022-12-31T18:03:52.569Z,18.49
2022-12-31T18:06:21.791Z,18.48
2022-12-31T18:08:49.840Z,18.58
2022-12-31T18:11:19.894Z,18.57
2022-12-31T18:13:50.317Z,18.45
2022-12-31T18:16:18.632Z,18.55
2022-12-31T18:18:46.456Z,18.61
2022-12-31T18:21:19.486Z,18.62
2022-12-31T18:23:49.651Z,18.61
2022-12-31T18:26:19.340Z,18.35
2022-12-31T18:28:48.073Z,18.56
2022-12-31T18:31:17.980Z,18.50
2022-12-31T18:33:47.571Z,18.54
2022-12-31T18:36:17.100Z,18.41
2022-12-31T18:38:45.268Z,18.38
2022-12-31T18:41:18.981Z,18.67
2022-12-31T18:43:47.440Z,18.68
2022-12-31T18:46:17.205Z,18.58
2022-12-31T18:48:46.087Z,18.52
2022-12-31T18:51:15.870Z,18.66
2022-12-31T18:53:43.870Z,18.58
2022-12-31T18:56:14.255Z,18.52
2022-12-31T18:58:44.076Z,18.67
2022-12-31T19:01:26.741Z,18.48
2022-12-31T19:03:55.847Z,18.42
2022-12-31T19:06:23.902Z,18.60
2022-12-31T19:08:52.746Z,18.63
2022-12-31T19:11:21.894Z,18.56
2022-12-31T19:13:51.451Z,18.60
2022-12-31T19:16:20.674Z,18.63
2022-12-31T19:18:49.580Z,18.59
2022-12-31T19:21:20.696Z,18.47
2022-12-31T19:23:48.515Z,18.55
2022-12-31T19:26:18.344Z,18.53
2022-12-31T19:28:47.875Z,18.57
2022-12-31T19:31:18.033Z,18.53
2022-12-31T19:33:46.361Z,18.61
2022-12-31T19:36:16.573Z,18.60
2022-12-31T19:38:45.370Z,18.58
2022-12-31T19:41:18.202Z,18.62
2022-12-31T19:43:46.331Z,18.60
2022-12-31T19:46:17.007Z,18.53
2022-12-31T19:48:46.303Z,18.53
2022-12-31T19:51:18.056Z,18.59
2022-12-31T19:53:47.024Z,18.44
2022-12-31T19:56:16.625Z,18.63
2022-12-31T19:58:44.984Z,18.57
2022-12-31T20:01:21.652Z,18.62
2022-12-31T20:03:51.292Z,18.61
2022-12-31T20:06:20.259Z,18.52
2022-12-31T20:08:48.277Z,18.54
2022-12-31T20:11:18.715Z,18.61
2022-12-31T20:13:47.540Z,18.60
2022-12-31T20:16:18.588Z,18.61
2022-12-31T20:18:48.712Z,18.62
2022-12-31T20:21:19.041Z,18.56
2022-12-31T20:23:47.195Z,18.62
2022-12-31T20:26:15.066Z,18.64
2022-12-31T20:28:43.381Z,18.67
2022-12-31T20:31:13.554Z,18.52
2022-12-31T20:33:41.715Z,18.43
2022-12-31T20:36:13.302Z,18.68
2022-12-31T20:38:41.541Z,18.62
2022-12-31T20:41:12.237Z,18.57
2022-12-31T20:43:40.514Z,18.48
2022-12-31T20:46:14.496Z,18.66
2022-12-31T20:48:44.185Z,18.64
2022-12-31T20:51:14.157Z,18.56
2022-12-31T20:53:47.632Z,18.60
2022-12-31T20:56:15.602Z,18.63
2022-12-31T20:58:43.424Z,18.62
2022-12-31T21:01:13.126Z,18.59
2022-12-31T21:06:32.823Z,18.57
2022-12-31T21:09:01.893Z,18.36
2022-12-31T21:11:47.503Z,18.53
2022-12-31T21:14:15.615Z,18.53
2022-12-31T21:16:43.598Z,18.57
2022-12-31T21:19:12.284Z,18.56
2022-12-31T21:21:41.618Z,18.52
2022-12-31T21:24:09.782Z,18.38
2022-12-31T21:26:38.157Z,18.53
2022-12-31T21:29:06.048Z,18.31
2022-12-31T21:31:33.972Z,18.52
2022-12-31T21:34:02.397Z,18.58
2022-12-31T21:36:30.174Z,18.46
2022-12-31T21:38:59.354Z,18.56
2022-12-31T21:41:45.125Z,18.35
2022-12-31T21:44:12.805Z,18.58
2022-12-31T21:46:54.559Z,18.52
2022-12-31T21:49:28.961Z,18.60
2022-12-31T21:52:13.908Z,18.63
2022-12-31T21:55:01.101Z,18.60
2022-12-31T21:57:28.842Z,18.47
2022-12-31T22:00:40.897Z,18.52
2022-12-31T22:03:20.832Z,18.49
2022-12-31T22:05:51.175Z,18.60
2022-12-31T22:08:21.017Z,18.62
2022-12-31T22:10:52.742Z,18.72
2022-12-31T22:13:21.435Z,18.70
2022-12-31T22:15:56.385Z,18.59
2022-12-31T22:18:29.309Z,18.61
2022-12-31T22:21:10.834Z,18.83
2022-12-31T22:23:44.209Z,18.74
2022-12-31T22:26:15.642Z,18.84
2022-12-31T22:28:45.458Z,18.82
2022-12-31T22:34:49.789Z,18.95
2022-12-31T22:37:46.445Z,18.67
2022-12-31T22:40:07.070Z,18.93
2022-12-31T22:42:36.527Z,18.94
2022-12-31T22:45:04.611Z,18.88
2022-12-31T22:47:32.787Z,19.01
2022-12-31T22:50:00.635Z,18.75
2022-12-31T22:52:28.655Z,18.95
2022-12-31T22:54:56.963Z,19.01
2022-12-31T22:57:24.728Z,19.00
2022-12-31T22:59:53.970Z,19.03
2022-12-31T23:02:21.962Z,18.91
2022-12-31T23:04:50.030Z,19.09
2022-12-31T23:07:17.934Z,19.08
2022-12-31T23:10:03.605Z,18.94
2022-12-31T23:12:31.488Z,19.01
2022-12-31T23:15:18.527Z,19.00
2022-12-31T23:18:03.556Z,19.03
2022-12-31T23:20:49.144Z,19.02
2022-12-31T23:23:17.933Z,18.91
2022-12-31T23:25:49.100Z,18.99
2022-12-31T23:28:19.719Z,19.01
2022-12-31T23:30:49.652Z,18.87
2022-12-31T23:33:19.765Z,18.79
2022-12-31T23:35:47.911Z,18.91
2022-12-31T23:38:18.132Z,18.92
2022-12-31T23:40:46.377Z,18.52
2022-12-31T23:43:22.671Z,18.72
2022-12-31T23:45:52.891Z,18.56
2022-12-31T23:48:21.091Z,18.59
2022-12-31T23:50:53.611Z,18.52
2022-12-31T23:53:22.571Z,18.49
2022-12-31T23:55:50.984Z,18.62
2022-12-31T23:58:18.992Z,18.60
